Time;durP1;ratioP1;P1;durP2;ratioP2;P2;SDS_P1;SDS_P2;PMS_P1;PMS_P2;Temp;Humidity;BMP_temperature;BMP_pressure;BME280_temperature;BME280_humidity;BME280_pressure;Samples;Min_cycle;Max_cycle;Signal;HPM_P1;HPM_P2
2021/07/26 00:00:02;;;;;;;7.32;6.82;;;;;;;18.11;69.18;99833.28;4982105;28;20042;-72
2021/07/26 00:02:34;;;;;;;5.38;5.18;;;;;;;18.10;68.74;99833.59;5001257;28;20129;-74
2021/07/26 00:05:00;;;;;;;4.93;4.63;;;;;;;18.11;68.93;99835.22;4980216;28;20022;-74
2021/07/26 00:07:25;;;;;;;3.70;3.60;;;;;;;18.11;68.73;99822.19;5001198;28;20186;-72
2021/07/26 00:09:50;;;;;;;3.50;3.30;;;;;;;18.11;68.66;99824.16;4997791;28;20038;-74
2021/07/26 00:12:16;;;;;;;2.45;2.35;;;;;;;18.16;69.21;99828.69;5005278;28;20037;-76
2021/07/26 00:14:41;;;;;;;2.83;2.72;;;;;;;18.20;68.78;99821.38;4972180;28;20030;-73
2021/07/26 00:17:07;;;;;;;2.85;2.75;;;;;;;18.19;68.88;99816.97;4972995;28;20111;-77
2021/07/26 00:19:42;;;;;;;2.72;2.60;;;;;;;18.25;68.64;99819.22;4972068;28;20026;-74
2021/07/26 00:22:17;;;;;;;2.70;2.55;;;;;;;18.31;68.55;99817.06;4998997;28;20045;-75
2021/07/26 00:24:42;;;;;;;2.10;2.00;;;;;;;18.33;68.59;99816.75;5007858;28;20034;-74
2021/07/26 00:27:37;;;;;;;2.95;2.85;;;;;;;18.25;68.02;99797.09;4969192;28;20457;-75
2021/07/26 00:30:04;;;;;;;4.32;4.13;;;;;;;18.25;68.72;99802.63;4987208;28;20030;-74
2021/07/26 00:32:38;;;;;;;5.07;4.78;;;;;;;18.37;68.47;99814.91;4999612;28;20033;-75
2021/07/26 00:35:37;;;;;;;4.32;4.13;;;;;;;18.39;68.85;99812.66;4991881;28;20045;-73
2021/07/26 00:42:18;;;;;;;6.20;5.07;;;;;;;18.26;68.11;99815.28;4965905;28;20052;-76
2021/07/26 00:44:44;;;;;;;5.82;5.53;;;;;;;18.12;68.92;99806.41;5005904;28;20058;-74
2021/07/26 00:47:09;;;;;;;6.45;6.05;;;;;;;18.11;69.12;99816.66;4979942;28;20042;-75
2021/07/26 00:49:35;;;;;;;8.38;7.75;;;;;;;17.99;69.02;99810.19;4968369;28;20102;-75
2021/07/26 00:52:02;;;;;;;13.50;7.93;;;;;;;17.93;69.97;99815.09;4985769;28;20033;-74
2021/07/26 00:54:33;;;;;;;8.40;7.75;;;;;;;17.82;70.08;99811.84;4984018;28;20050;-75
2021/07/26 00:57:02;;;;;;;8.98;8.35;;;;;;;17.74;70.25;99820.97;5000093;28;20025;-74
2021/07/26 00:59:29;;;;;;;9.38;8.85;;;;;;;17.61;70.96;99809.78;4995489;28;20030;-75
2021/07/26 01:01:55;;;;;;;9.63;8.93;;;;;;;17.52;71.13;99809.00;5002229;28;20407;-73
2021/07/26 01:04:21;;;;;;;7.70;7.20;;;;;;;17.46;71.20;99815.81;4970889;28;20045;-75
2021/07/26 01:06:47;;;;;;;5.68;5.18;;;;;;;17.42;71.55;99820.38;4979064;28;20018;-74
2021/07/26 01:09:14;;;;;;;3.53;3.28;;;;;;;17.38;71.00;99820.22;5004842;28;20049;-75
2021/07/26 01:11:40;;;;;;;2.40;2.30;;;;;;;17.35;71.04;99811.78;5005600;28;20109;-74
2021/07/26 01:14:06;;;;;;;1.95;1.85;;;;;;;17.39;70.83;99821.03;4977793;28;20098;-74
2021/07/26 01:16:32;;;;;;;1.88;1.77;;;;;;;17.34;70.84;99813.72;5001413;28;20026;-75
2021/07/26 01:19:01;;;;;;;2.95;2.85;;;;;;;17.38;71.05;99819.44;4989978;28;20086;-76
2021/07/26 01:21:28;;;;;;;5.13;4.68;;;;;;;17.41;71.25;99816.00;4990457;28;20037;-77
2021/07/26 01:23:54;;;;;;;4.65;4.45;;;;;;;17.43;70.73;99822.00;5003454;28;20492;-78
2021/07/26 01:26:22;;;;;;;6.60;4.50;;;;;;;17.46;71.11;99821.34;4991813;28;20357;-76
2021/07/26 01:28:50;;;;;;;5.28;4.93;;;;;;;17.52;70.64;99819.25;4988833;28;20022;-77
2021/07/26 01:31:16;;;;;;;4.38;4.18;;;;;;;17.48;70.56;99816.31;4987459;28;20571;-77
2021/07/26 01:33:45;;;;;;;2.70;2.53;;;;;;;17.54;70.86;99823.31;4992446;28;20050;-77
2021/07/26 01:36:12;;;;;;;3.13;3.03;;;;;;;17.56;70.57;99828.50;5000345;28;20038;-73
2021/07/26 01:38:38;;;;;;;3.47;3.28;;;;;;;17.50;70.69;99827.84;4993660;28;20104;-73
2021/07/26 01:41:04;;;;;;;4.40;4.20;;;;;;;17.53;70.50;99820.88;4984710;28;20058;-74
2021/07/26 01:43:34;;;;;;;3.67;3.50;;;;;;;17.51;70.89;99823.97;5005513;28;20029;-75
2021/07/26 01:46:27;;;;;;;3.15;3.00;;;;;;;17.53;70.76;99820.88;5004462;28;20045;-76
2021/07/26 01:49:14;;;;;;;3.80;3.58;;;;;;;17.49;70.54;99815.16;5007090;28;20069;-73
2021/07/26 01:51:43;;;;;;;8.70;5.03;;;;;;;17.47;70.70;99822.97;4973220;28;20423;-75
2021/07/26 01:54:09;;;;;;;6.68;6.18;;;;;;;17.47;70.54;99809.16;4990317;28;20097;-75
2021/07/26 01:56:35;;;;;;;5.78;5.25;;;;;;;17.47;70.96;99813.91;5004386;28;20018;-75
2021/07/26 01:59:02;;;;;;;4.15;3.95;;;;;;;17.41;70.66;99813.25;4983038;28;20041;-74
2021/07/26 02:01:27;;;;;;;3.00;2.80;;;;;;;17.39;70.68;99812.75;4982855;28;20034;-73
2021/07/26 02:03:52;;;;;;;1.92;1.83;;;;;;;17.37;70.46;99812.28;4979842;28;20554;-73
2021/07/26 02:06:18;;;;;;;4.25;1.55;;;;;;;17.36;70.41;99816.16;4981124;28;20034;-73
2021/07/26 02:08:43;;;;;;;1.38;1.27;;;;;;;17.35;70.31;99826.41;4986976;28;20037;-72
2021/07/26 02:11:09;;;;;;;2.13;2.03;;;;;;;17.32;70.15;99820.72;4978628;28;20027;-73
2021/07/26 02:13:35;;;;;;;2.10;2.00;;;;;;;17.32;70.40;99826.25;5002725;28;20026;-72
2021/07/26 02:16:01;;;;;;;3.10;3.00;;;;;;;17.30;70.88;99823.00;5001025;28;20058;-73
2021/07/26 02:18:26;;;;;;;3.58;3.38;;;;;;;17.33;70.40;99827.88;4999546;28;20030;-75
2021/07/26 02:20:51;;;;;;;4.47;4.28;;;;;;;17.32;70.79;99831.75;5007491;28;20045;-73
2021/07/26 02:23:17;;;;;;;5.50;5.15;;;;;;;17.30;70.90;99825.75;5004781;28;20026;-76
2021/07/26 02:25:42;;;;;;;6.45;5.05;;;;;;;17.29;70.46;99830.50;5002109;28;20121;-75
2021/07/26 02:28:08;;;;;;;7.15;6.85;;;;;;;17.25;70.50;99837.78;4971343;28;20033;-75
2021/07/26 02:30:34;;;;;;;5.72;5.50;;;;;;;17.18;70.66;99829.97;4980582;28;20057;-75
2021/07/26 02:33:00;;;;;;;4.65;4.45;;;;;;;17.15;70.99;99829.84;5001993;28;20027;-76
2021/07/26 02:35:27;;;;;;;4.28;3.97;;;;;;;17.10;70.88;99825.28;4987343;28;20045;-76
2021/07/26 02:37:54;;;;;;;2.28;2.08;;;;;;;17.07;70.81;99821.22;5000680;28;20037;-76
2021/07/26 02:40:20;;;;;;;1.80;1.75;;;;;;;17.07;71.07;99820.41;5001592;28;20114;-75
2021/07/26 02:42:45;;;;;;;1.45;1.35;;;;;;;17.04;71.23;99827.41;5009484;28;20054;-76
2021/07/26 02:45:11;;;;;;;1.30;1.27;;;;;;;17.05;70.84;99833.72;4976247;28;20468;-76
2021/07/26 02:47:36;;;;;;;1.73;1.63;;;;;;;17.04;70.56;99826.56;4982814;28;20026;-74
2021/07/26 02:50:02;;;;;;;1.52;1.52;;;;;;;17.06;70.38;99827.06;5001230;28;20034;-74
2021/07/26 02:52:27;;;;;;;1.65;1.55;;;;;;;17.05;70.57;99834.53;5006152;28;20034;-74
2021/07/26 02:54:53;;;;;;;1.40;1.30;;;;;;;17.04;70.47;99826.56;4989846;28;20037;-75
2021/07/26 02:57:18;;;;;;;1.55;1.55;;;;;;;17.05;70.48;99830.97;4979750;28;20034;-75
2021/07/26 02:59:43;;;;;;;1.60;1.50;;;;;;;17.06;70.49;99818.78;5018477;28;20011;-74
2021/07/26 03:02:09;;;;;;;1.50;1.40;;;;;;;17.06;70.38;99824.31;5000242;28;20050;-72
2021/07/26 03:04:34;;;;;;;1.02;1.00;;;;;;;17.08;70.28;99827.53;4994896;28;20046;-74
2021/07/26 03:07:00;;;;;;;0.70;0.70;;;;;;;17.09;70.25;99820.91;4987853;28;20042;-74
2021/07/26 03:09:25;;;;;;;0.50;0.50;;;;;;;17.09;70.32;99812.59;4989059;28;20023;-75
2021/07/26 03:11:51;;;;;;;0.88;0.88;;;;;;;17.10;69.82;99817.81;4967949;28;20049;-74
2021/07/26 03:14:16;;;;;;;0.70;0.70;;;;;;;17.11;70.34;99815.84;4993127;28;20479;-75
2021/07/26 03:16:42;;;;;;;1.48;1.48;;;;;;;17.05;69.98;99815.19;5008862;28;20038;-75
2021/07/26 03:19:08;;;;;;;2.10;2.00;;;;;;;17.03;70.00;99824.97;4991172;28;20496;-73
2021/07/26 03:21:33;;;;;;;2.35;2.25;;;;;;;17.01;70.18;99818.94;4994015;28;20061;-74
2021/07/26 03:23:59;;;;;;;1.50;1.40;;;;;;;16.96;69.94;99824.63;4974522;28;20054;-74
2021/07/26 03:26:24;;;;;;;0.90;0.90;;;;;;;16.90;70.17;99813.72;5000728;28;20046;-74
2021/07/26 03:28:49;;;;;;;0.80;0.80;;;;;;;16.87;70.04;99816.31;4986537;28;20117;-72
2021/07/26 03:31:15;;;;;;;0.98;0.98;;;;;;;16.83;69.94;99810.59;5009958;28;20061;-73
2021/07/26 03:33:44;;;;;;;0.80;0.80;;;;;;;16.79;69.97;99815.13;4988804;28;20041;-73
2021/07/26 03:36:10;;;;;;;0.73;0.73;;;;;;;16.74;70.14;99818.06;5008302;28;20030;-73
2021/07/26 03:38:36;;;;;;;0.60;0.60;;;;;;;16.72;70.05;99823.91;4972710;28;20069;-73
2021/07/26 03:41:01;;;;;;;0.60;0.60;;;;;;;16.69;70.25;99826.50;5005879;28;20046;-75
2021/07/26 03:43:27;;;;;;;0.65;0.65;;;;;;;16.62;70.25;99809.59;4989713;28;20064;-73
2021/07/26 03:45:52;;;;;;;0.50;0.50;;;;;;;16.64;70.22;99818.38;4987658;28;20076;-73
2021/07/26 03:48:18;;;;;;;0.70;0.70;;;;;;;16.61;70.17;99816.25;5006549;28;20022;-75
2021/07/26 03:50:43;;;;;;;0.38;0.38;;;;;;;16.58;70.30;99809.44;4988620;28;20022;-75
2021/07/26 03:53:09;;;;;;;0.32;0.32;;;;;;;16.55;70.16;99818.34;4987516;28;20049;-74
2021/07/26 03:55:36;;;;;;;0.50;0.50;;;;;;;16.53;70.60;99815.91;5003601;28;20121;-73
2021/07/26 03:58:03;;;;;;;1.10;1.10;;;;;;;16.49;70.44;99822.41;4987012;28;20125;-74
2021/07/26 04:00:30;;;;;;;1.50;1.40;;;;;;;16.44;70.80;99823.38;4976219;28;20498;-75
2021/07/26 04:08:29;;;;;;;1.10;1.10;;;;;;;16.33;70.79;99819.28;4994119;28;20026;-76
2021/07/26 04:11:04;;;;;;;1.00;1.00;;;;;;;16.29;70.86;99812.75;4999561;28;20038;-76
2021/07/26 04:13:32;;;;;;;0.70;0.70;;;;;;;16.26;70.51;99811.44;4990788;28;20033;-75
2021/07/26 04:16:00;;;;;;;2.13;2.03;;;;;;;16.28;70.74;99817.47;4991143;28;20034;-76
2021/07/26 04:18:28;;;;;;;1.98;1.88;;;;;;;16.32;70.92;99823.94;4980207;28;20034;-76
2021/07/26 04:20:54;;;;;;;1.10;1.10;;;;;;;16.28;70.76;99813.88;4995261;28;20026;-75
2021/07/26 04:23:20;;;;;;;0.80;0.80;;;;;;;16.32;70.93;99820.38;4984603;28;20027;-76
2021/07/26 04:25:48;;;;;;;0.90;0.90;;;;;;;16.34;70.89;99816.19;4977919;28;20041;-76
2021/07/26 04:28:13;;;;;;;0.65;0.65;;;;;;;16.36;70.85;99824.94;4968289;28;20018;-76
2021/07/26 04:30:39;;;;;;;0.88;0.88;;;;;;;16.38;70.18;99824.63;4992466;28;20034;-76
2021/07/26 04:33:04;;;;;;;1.48;1.48;;;;;;;16.38;70.82;99817.19;4987100;28;20027;-75
2021/07/26 04:35:30;;;;;;;1.95;1.50;;;;;;;16.40;70.38;99820.41;5005864;28;20032;-77
2021/07/26 04:37:56;;;;;;;2.28;2.17;;;;;;;16.43;71.10;99821.72;4977117;28;20089;-77
2021/07/26 04:40:21;;;;;;;3.22;3.13;;;;;;;16.50;70.98;99830.34;5007139;28;20078;-76
2021/07/26 04:42:47;;;;;;;2.78;2.45;;;;;;;16.49;70.90;99823.19;5004211;28;20034;-77
2021/07/26 04:45:13;;;;;;;2.58;2.38;;;;;;;16.53;70.67;99826.97;4974592;28;20041;-77
2021/07/26 04:47:39;;;;;;;2.35;2.25;;;;;;;16.55;71.03;99823.88;4985422;28;20038;-78
2021/07/26 04:50:05;;;;;;;2.30;2.20;;;;;;;16.56;70.65;99828.25;5004496;28;20030;-77
2021/07/26 04:52:31;;;;;;;1.90;1.80;;;;;;;16.56;71.19;99834.59;4970043;28;20278;-77
2021/07/26 04:54:57;;;;;;;2.45;1.88;;;;;;;16.57;70.85;99836.22;4988674;28;20030;-77
2021/07/26 04:57:22;;;;;;;3.70;2.33;;;;;;;16.58;70.71;99820.47;5006353;28;20030;-76
2021/07/26 04:59:54;;;;;;;2.35;2.25;;;;;;;16.62;70.79;99831.66;5000621;28;20037;-76
2021/07/26 05:02:22;;;;;;;1.80;1.75;;;;;;;16.67;70.58;99828.78;5007729;28;20038;-77
2021/07/26 05:04:48;;;;;;;2.55;2.45;;;;;;;16.66;70.59;99830.72;4989444;28;20034;-77
2021/07/26 05:07:13;;;;;;;3.38;3.13;;;;;;;16.67;70.75;99829.56;4999765;28;20030;-76
2021/07/26 05:09:40;;;;;;;4.13;3.83;;;;;;;16.71;70.75;99838.03;4982718;28;20069;-76
2021/07/26 05:12:08;;;;;;;4.95;4.65;;;;;;;16.68;70.98;99842.25;5005692;28;20029;-75
2021/07/26 05:14:34;;;;;;;4.47;4.18;;;;;;;16.64;70.96;99843.22;5002296;28;20025;-76
2021/07/26 05:16:59;;;;;;;5.00;4.70;;;;;;;16.61;71.10;99841.09;4998567;28;20465;-77
2021/07/26 05:19:25;;;;;;;4.80;4.60;;;;;;;16.54;71.01;99841.56;4955438;28;20046;-76
2021/07/26 05:21:50;;;;;;;5.35;4.88;;;;;;;16.52;71.20;99850.16;5003129;28;20694;-76
2021/07/26 05:24:16;;;;;;;5.13;4.70;;;;;;;16.50;71.40;99846.09;4971645;28;20069;-74
2021/07/26 05:26:42;;;;;;;4.10;3.90;;;;;;;16.44;71.80;99852.88;4999448;28;20050;-73
2021/07/26 05:29:07;;;;;;;4.82;4.63;;;;;;;16.40;71.99;99848.00;5000099;28;20497;-73
2021/07/26 05:31:34;;;;;;;3.65;3.45;;;;;;;16.41;71.63;99859.84;5003598;28;20026;-74
2021/07/26 05:33:59;;;;;;;2.13;2.03;;;;;;;16.37;71.68;99851.41;5011062;28;20036;-74
2021/07/26 05:36:27;;;;;;;1.70;1.60;;;;;;;16.40;71.76;99864.56;4975748;28;20109;-76
2021/07/26 05:38:53;;;;;;;1.83;1.73;;;;;;;16.42;71.68;99867.00;5000883;28;20030;-76
2021/07/26 05:41:18;;;;;;;1.90;1.80;;;;;;;16.43;71.49;99865.88;5005134;28;20129;-76
2021/07/26 05:43:45;;;;;;;2.13;2.03;;;;;;;16.46;72.05;99856.97;5004753;28;20379;-77
2021/07/26 05:46:10;;;;;;;2.42;2.22;;;;;;;16.51;71.50;99865.09;4988691;28;20034;-76
2021/07/26 05:48:36;;;;;;;1.65;1.65;;;;;;;16.54;71.77;99858.94;5002603;28;20030;-76
2021/07/26 05:51:03;;;;;;;2.65;2.47;;;;;;;16.59;71.88;99857.97;4999527;28;20033;-75
2021/07/26 05:53:29;;;;;;;2.55;2.45;;;;;;;16.61;71.79;99860.41;4999620;28;20030;-76
2021/07/26 05:55:54;;;;;;;3.30;2.88;;;;;;;16.67;71.32;99861.91;5000037;28;20018;-75
2021/07/26 05:58:20;;;;;;;2.25;2.13;;;;;;;16.65;71.49;99858.66;4988393;28;20117;-78
2021/07/26 06:00:56;;;;;;;3.03;2.65;;;;;;;16.75;71.51;99864.69;5001851;28;20059;-78
2021/07/26 06:03:21;;;;;;;3.17;3.08;;;;;;;16.80;71.36;99872.00;4969863;28;20041;-75
2021/07/26 06:05:55;;;;;;;1.65;1.65;;;;;;;16.86;71.48;99873.47;4977755;28;20062;-76
2021/07/26 06:08:21;;;;;;;1.05;1.05;;;;;;;16.86;71.54;99854.13;4972719;28;20026;-78
2021/07/26 06:10:46;;;;;;;2.08;1.98;;;;;;;16.94;71.80;99869.13;4973606;28;20026;-77
2021/07/26 06:13:12;;;;;;;4.30;3.97;;;;;;;17.00;71.79;99869.81;4956038;28;20060;-74
2021/07/26 06:15:37;;;;;;;4.05;3.95;;;;;;;17.03;71.60;99869.16;4968720;28;20109;-77
2021/07/26 06:18:03;;;;;;;4.47;4.28;;;;;;;17.04;71.12;99868.00;5006862;28;20022;-76
2021/07/26 06:20:29;;;;;;;4.55;3.83;;;;;;;17.07;71.08;99875.66;4954621;28;20049;-76
2021/07/26 06:22:54;;;;;;;4.30;4.10;;;;;;;17.08;71.57;99868.97;4968356;28;20031;-75
2021/07/26 06:25:45;;;;;;;3.70;3.50;;;;;;;17.13;71.21;99868.84;4967018;28;20448;-74
2021/07/26 06:28:13;;;;;;;3.05;2.95;;;;;;;17.13;71.15;99868.84;5303119;23;20060;-74
2021/07/26 06:30:39;;;;;;;3.20;3.10;;;;;;;17.16;71.76;99872.91;5003692;28;20046;-74
2021/07/26 06:33:09;;;;;;;3.97;3.78;;;;;;;17.22;71.53;99879.91;5017811;28;20117;-74
2021/07/26 06:35:35;;;;;;;5.30;4.90;;;;;;;17.26;71.52;99878.91;5008289;28;20108;-74
2021/07/26 06:38:00;;;;;;;6.20;5.82;;;;;;;17.30;71.49;99881.03;5023301;28;20064;-75
2021/07/26 06:40:26;;;;;;;6.13;5.60;;;;;;;17.33;71.29;99878.41;5023291;28;20034;-75
2021/07/26 06:42:52;;;;;;;6.22;5.93;;;;;;;17.39;71.87;99881.84;5002772;28;20030;-74
2021/07/26 06:45:18;;;;;;;6.50;5.68;;;;;;;17.45;71.65;99886.09;5023967;28;20116;-73
2021/07/26 06:47:44;;;;;;;5.57;5.00;;;;;;;17.54;71.96;99891.59;4997652;28;20357;-74
2021/07/26 06:50:10;;;;;;;6.75;6.35;;;;;;;17.61;71.60;99883.63;5008749;28;20044;-74
2021/07/26 06:52:35;;;;;;;6.78;5.80;;;;;;;17.71;71.61;99883.31;5004753;28;20018;-72
2021/07/26 06:55:01;;;;;;;5.78;5.38;;;;;;;17.81;71.20;99876.59;5022331;28;20029;-72
2021/07/26 06:57:26;;;;;;;7.07;6.60;;;;;;;17.87;71.83;99875.31;5022064;28;20026;-73
2021/07/26 06:59:52;;;;;;;9.43;6.90;;;;;;;17.99;71.15;99879.34;5030047;28;20049;-73
2021/07/26 07:02:17;;;;;;;8.10;6.32;;;;;;;18.07;71.60;99873.81;5023687;28;20040;-72
2021/07/26 07:04:43;;;;;;;6.50;6.05;;;;;;;18.16;71.09;99871.00;4990675;28;20081;-73
2021/07/26 07:07:10;;;;;;;6.85;6.25;;;;;;;18.24;71.49;99867.41;5020789;28;20030;-73
2021/07/26 07:09:36;;;;;;;8.27;7.65;;;;;;;18.37;70.86;99879.41;5008464;28;20366;-73
2021/07/26 07:12:01;;;;;;;6.85;6.45;;;;;;;18.49;71.54;99875.94;4997610;28;20068;-75
2021/07/26 07:14:27;;;;;;;7.70;7.10;;;;;;;18.65;71.47;99881.72;5017451;28;20036;-74
2021/07/26 07:16:52;;;;;;;7.68;6.45;;;;;;;18.84;70.41;99887.63;5019968;28;20029;-74
2021/07/26 07:19:18;;;;;;;6.50;5.93;;;;;;;19.02;70.46;99880.03;5028619;28;20108;-75
2021/07/26 07:21:44;;;;;;;5.35;4.88;;;;;;;19.20;69.63;99879.91;4994093;28;20033;-74
2021/07/26 07:24:09;;;;;;;7.45;5.85;;;;;;;19.33;69.53;99884.41;5018719;28;20049;-76
2021/07/26 07:26:35;;;;;;;7.53;6.90;;;;;;;19.42;69.38;99886.28;5004406;28;20240;-73
2021/07/26 07:29:02;;;;;;;6.70;6.13;;;;;;;19.51;68.92;99884.28;4998592;28;20046;-74
2021/07/26 07:31:28;;;;;;;6.97;6.10;;;;;;;19.71;68.81;99888.97;4994657;28;20030;-74
2021/07/26 07:33:56;;;;;;;5.35;5.00;;;;;;;19.88;68.69;99892.75;4986284;28;20014;-74
2021/07/26 07:36:22;;;;;;;5.15;4.78;;;;;;;20.05;68.76;99887.03;4970649;28;20030;-74
2021/07/26 07:38:48;;;;;;;5.13;4.55;;;;;;;20.27;68.40;99882.22;4989476;28;20050;-74
2021/07/26 07:41:14;;;;;;;6.35;5.75;;;;;;;20.59;67.43;99882.47;4986149;28;20495;-75
2021/07/26 07:43:39;;;;;;;4.43;4.22;;;;;;;20.86;67.41;99880.16;5007810;28;20045;-74
2021/07/26 07:46:05;;;;;;;2.85;2.75;;;;;;;21.14;67.06;99879.44;4978619;28;20034;-74
2021/07/26 07:48:31;;;;;;;4.72;4.53;;;;;;;21.35;66.49;99885.63;4999671;28;20074;-73
2021/07/26 07:50:57;;;;;;;4.88;4.57;;;;;;;21.54;65.60;99893.38;4989690;28;20041;-73
2021/07/26 07:53:23;;;;;;;2.78;2.67;;;;;;;21.79;65.60;99887.69;5005656;28;20108;-72
2021/07/26 07:55:49;;;;;;;1.98;1.88;;;;;;;22.02;65.22;99890.72;5008480;28;20025;-74
2021/07/26 07:58:15;;;;;;;1.92;1.75;;;;;;;22.24;64.52;99882.91;5007570;28;20065;-74
2021/07/26 08:00:40;;;;;;;1.80;1.70;;;;;;;22.46;64.30;99887.91;4989433;28;20034;-73
2021/07/26 08:03:05;;;;;;;1.33;1.20;;;;;;;22.56;63.91;99888.50;4979102;28;20429;-75
2021/07/26 08:05:31;;;;;;;1.60;1.50;;;;;;;22.60;63.44;99892.19;5000128;28;20440;-73
2021/07/26 08:07:57;;;;;;;2.53;2.40;;;;;;;22.53;63.48;99895.63;4981665;28;20031;-74
2021/07/26 08:10:24;;;;;;;4.95;4.65;;;;;;;22.39;62.98;99898.84;4984916;28;20539;-74
2021/07/26 08:12:49;;;;;;;6.05;5.63;;;;;;;22.19;62.48;99899.91;4987436;28;20058;-74
2021/07/26 08:15:15;;;;;;;5.85;5.30;;;;;;;22.00;62.44;99893.03;4974488;28;20068;-75
2021/07/26 08:17:43;;;;;;;6.15;5.60;;;;;;;21.85;62.53;99891.03;4926329;28;20087;-74
2021/07/26 08:20:11;;;;;;;4.90;4.63;;;;;;;21.72;62.77;99899.44;4956611;28;20022;-75
2021/07/26 08:22:37;;;;;;;4.90;4.50;;;;;;;21.67;62.94;99896.91;4979872;28;20030;-74
2021/07/26 08:25:05;;;;;;;4.35;4.05;;;;;;;21.65;63.20;99899.22;4989733;28;20045;-76
2021/07/26 08:27:30;;;;;;;4.18;3.97;;;;;;;21.68;62.84;99897.72;5012678;28;20503;-75
2021/07/26 08:29:56;;;;;;;4.82;4.53;;;;;;;21.71;63.29;99897.00;5027078;28;20134;-74
2021/07/26 08:32:22;;;;;;;4.50;4.20;;;;;;;21.76;62.65;99897.56;5023641;28;20030;-75
2021/07/26 08:34:47;;;;;;;5.25;4.78;;;;;;;21.88;62.93;99898.69;5028144;28;20030;-74
2021/07/26 08:37:12;;;;;;;5.32;5.03;;;;;;;22.01;62.93;99900.22;5024672;28;20078;-76
2021/07/26 08:39:57;;;;;;;7.15;5.55;;;;;;;22.16;62.73;99906.19;5011999;28;20041;-75
2021/07/26 08:42:22;;;;;;;4.82;4.53;;;;;;;22.27;62.15;99904.50;5000494;28;20038;-74
2021/07/26 08:44:48;;;;;;;5.57;5.00;;;;;;;22.31;61.91;99897.84;5005573;28;20499;-73
2021/07/26 08:47:17;;;;;;;5.28;4.95;;;;;;;22.27;61.52;99901.72;4972896;28;20138;-74
2021/07/26 08:49:44;;;;;;;3.35;3.25;;;;;;;22.29;62.22;99902.94;5000558;28;20022;-73
2021/07/26 08:52:24;;;;;;;2.63;2.53;;;;;;;22.45;61.96;99897.41;5015568;28;20463;-74
2021/07/26 08:54:54;;;;;;;5.55;5.32;;;;;;;22.61;61.21;99893.81;4997952;28;20041;-72
2021/07/26 08:57:49;;;;;;;5.80;5.03;;;;;;;22.88;60.85;99899.63;4984496;28;20026;-74
2021/07/26 09:00:24;;;;;;;4.05;3.85;;;;;;;23.03;60.49;99901.59;5011098;28;20053;-73
2021/07/26 09:02:50;;;;;;;6.50;5.93;;;;;;;23.21;58.89;99899.22;4990297;28;20037;-76
2021/07/26 09:05:16;;;;;;;6.10;5.68;;;;;;;23.37;58.90;99893.59;4988832;28;20030;-75
2021/07/26 09:07:44;;;;;;;6.55;4.82;;;;;;;23.58;57.94;99895.22;5024241;28;20022;-76
2021/07/26 09:10:11;;;;;;;8.18;4.22;;;;;;;23.82;57.75;99899.69;5007582;28;20029;-75
2021/07/26 09:12:40;;;;;;;3.30;3.20;;;;;;;24.09;57.50;99897.81;4988410;28;20034;-75
2021/07/26 09:15:22;;;;;;;2.67;2.38;;;;;;;24.37;57.02;99903.13;5010610;28;20068;-74
2021/07/26 09:17:48;;;;;;;3.50;3.40;;;;;;;24.56;56.03;99893.88;5007796;28;20056;-73
2021/07/26 09:20:13;;;;;;;5.07;4.78;;;;;;;24.73;55.20;99897.34;5018174;28;20034;-73
2021/07/26 09:22:47;;;;;;;4.65;4.45;;;;;;;24.76;54.12;99906.97;5016436;28;20235;-74
2021/07/26 09:26:06;;;;;;;3.03;2.92;;;;;;;24.90;54.32;99896.81;5007694;28;20388;-76
2021/07/26 09:28:33;;;;;;;4.30;4.00;;;;;;;24.98;53.43;99905.31;5020744;28;20042;-74
2021/07/26 09:31:07;;;;;;;5.13;4.65;;;;;;;24.90;52.93;99908.00;5009688;28;20365;-74
2021/07/26 09:33:32;;;;;;;5.32;5.03;;;;;;;24.82;52.84;99900.69;4997926;28;20022;-70
2021/07/26 09:36:19;;;;;;;4.72;4.43;;;;;;;24.88;52.43;99899.19;4990251;28;20060;-72
2021/07/26 09:39:08;;;;;;;5.20;4.90;;;;;;;24.95;52.37;99898.47;5019776;28;20108;-72
2021/07/26 09:42:17;;;;;;;3.75;3.55;;;;;;;25.14;52.31;99905.94;5016874;28;20113;-74
2021/07/26 09:45:24;;;;;;;4.20;3.90;;;;;;;25.30;51.96;99902.19;5001631;28;20546;-74
2021/07/26 09:48:12;;;;;;;4.88;4.63;;;;;;;25.38;50.38;99898.31;4929822;29;20494;-74
2021/07/26 09:50:43;;;;;;;3.80;3.50;;;;;;;25.60;51.13;99899.41;5005552;28;20041;-73
2021/07/26 09:53:10;;;;;;;3.70;3.40;;;;;;;25.95;50.78;99899.00;5024357;28;20026;-74
2021/07/26 09:55:36;;;;;;;3.88;3.58;;;;;;;26.38;49.99;99903.44;4996567;28;20112;-72
2021/07/26 09:58:03;;;;;;;4.55;4.35;;;;;;;26.82;48.58;99902.63;5022113;28;20038;-73
2021/07/26 10:00:29;;;;;;;3.30;3.10;;;;;;;27.37;48.38;99901.00;5022995;28;20032;-71
2021/07/26 10:02:55;;;;;;;2.63;2.53;;;;;;;28.01;48.80;99898.44;5020362;28;20053;-73
2021/07/26 10:05:26;;;;;;;2.50;2.40;;;;;;;28.67;48.27;99897.31;5017161;28;20034;-73
2021/07/26 10:07:54;;;;;;;3.22;3.13;;;;;;;29.19;46.14;99904.44;5011074;28;21004;-73
2021/07/26 10:10:22;;;;;;;5.55;5.18;;;;;;;29.11;41.47;99911.31;4997039;28;20060;-74
2021/07/26 10:12:48;;;;;;;5.65;5.30;;;;;;;28.93;42.05;99903.72;5019570;28;20468;-74
2021/07/26 10:15:15;;;;;;;4.78;4.47;;;;;;;28.89;42.39;99895.28;5016780;28;20030;-74
2021/07/26 10:17:41;;;;;;;3.97;3.78;;;;;;;29.06;41.94;99902.09;5019370;28;20109;-73
2021/07/26 10:20:08;;;;;;;3.95;3.72;;;;;;;29.44;42.46;99898.78;5019866;28;20057;-72
2021/07/26 10:22:35;;;;;;;4.75;3.30;;;;;;;29.83;41.65;99899.84;5003892;28;20021;-74
2021/07/26 10:25:11;;;;;;;2.63;2.50;;;;;;;30.43;42.74;99907.13;5017696;28;20033;-73
2021/07/26 10:27:39;;;;;;;4.60;4.13;;;;;;;30.69;40.00;99907.72;5010109;28;20018;-73
2021/07/26 10:30:05;;;;;;;3.67;3.47;;;;;;;30.48;40.29;99893.81;5013743;28;20065;-74
2021/07/26 10:32:30;;;;;;;4.47;3.50;;;;;;;30.43;40.67;99904.31;5014718;28;20033;-75
2021/07/26 10:34:59;;;;;;;4.55;4.35;;;;;;;30.71;38.56;99902.47;4999326;28;20049;-74
2021/07/26 10:37:37;;;;;;;3.60;3.50;;;;;;;31.04;37.43;99900.13;5022635;28;20077;-74
2021/07/26 10:40:21;;;;;;;3.88;3.55;;;;;;;31.20;36.96;99901.59;5020780;28;20026;-79
2021/07/26 10:42:51;;;;;;;5.77;3.57;;;;;;;30.88;35.88;99888.59;4994785;28;20026;-76
2021/07/26 10:45:35;;;;;;;3.28;2.97;;;;;;;30.46;36.84;99888.56;5019150;28;20073;-77
2021/07/26 10:48:30;;;;;;;3.80;3.50;;;;;;;30.00;37.83;99890.47;5016818;28;20041;-78
2021/07/26 10:50:58;;;;;;;4.80;4.30;;;;;;;29.54;38.36;99886.69;5016070;28;20030;-75
2021/07/26 10:53:37;;;;;;;5.72;4.03;;;;;;;29.44;37.81;99881.91;5017841;28;20049;-78
2021/07/26 10:56:07;;;;;;;3.70;3.53;;;;;;;29.33;39.11;99876.28;5002310;28;20107;-78
2021/07/26 10:58:38;;;;;;;3.45;3.35;;;;;;;29.50;38.77;99890.72;5003212;28;20030;-72
2021/07/26 11:01:22;;;;;;;4.00;3.80;;;;;;;29.50;38.38;99876.63;5022973;28;20029;-73
2021/07/26 11:03:57;;;;;;;4.82;3.40;;;;;;;29.40;37.52;99887.53;5030185;28;20030;-75
2021/07/26 11:06:35;;;;;;;4.28;4.00;;;;;;;29.32;36.88;99874.69;5022736;28;20040;-74
2021/07/26 11:09:20;;;;;;;4.93;3.10;;;;;;;29.47;37.87;99874.63;4999784;28;20581;-74
2021/07/26 11:11:46;;;;;;;3.67;3.38;;;;;;;29.71;37.74;99876.50;5027933;28;20030;-77
2021/07/26 11:14:14;;;;;;;3.65;3.45;;;;;;;30.10;35.52;99872.69;5015575;28;20038;-76
2021/07/26 11:16:55;;;;;;;3.25;3.10;;;;;;;30.70;35.52;99880.31;5020846;28;20514;-74
2021/07/26 11:19:32;;;;;;;3.28;3.08;;;;;;;31.23;34.70;99873.31;5009994;28;20034;-74
2021/07/26 11:21:59;;;;;;;3.13;3.03;;;;;;;31.76;33.13;99873.91;5024028;28;20030;-74
2021/07/26 11:24:47;;;;;;;3.10;3.00;;;;;;;32.24;32.38;99871.97;5012893;28;20060;-74
2021/07/26 11:27:32;;;;;;;3.38;3.17;;;;;;;32.79;30.36;99872.69;5026160;28;20056;-73
2021/07/26 11:29:59;;;;;;;3.38;3.28;;;;;;;33.04;29.03;99865.75;5015423;28;20069;-74
2021/07/26 11:32:29;;;;;;;3.55;3.25;;;;;;;33.45;28.88;99867.38;5026983;28;20033;-75
2021/07/26 11:34:56;;;;;;;2.88;2.78;;;;;;;33.99;27.34;99871.09;5011635;28;20022;-76
2021/07/26 11:37:32;;;;;;;2.85;2.75;;;;;;;34.81;28.17;99864.66;5023117;28;20062;-75
2021/07/26 11:39:59;;;;;;;3.00;2.80;;;;;;;35.39;27.26;99867.50;5028177;28;20033;-74
2021/07/26 11:42:36;;;;;;;2.28;2.17;;;;;;;36.18;25.90;99870.75;5017646;28;20031;-75
2021/07/26 11:45:03;;;;;;;3.33;3.13;;;;;;;36.79;23.51;99865.13;5025855;28;20038;-75
2021/07/26 11:47:32;;;;;;;7.90;3.05;;;;;;;37.32;23.34;99858.72;5011007;28;20034;-73
2021/07/26 11:49:58;;;;;;;3.30;3.00;;;;;;;37.67;23.95;99861.47;5016789;28;20025;-73